sensor_id;sensor_type;location;lat;lon;timestamp;P1;durP1;ratioP1;P2;durP2;ratioP2
41309;SDS011;27057;51.438;-0.010;2024-02-28T00:00:30;17.65;;;3.30;;
41309;SDS011;27057;51.438;-0.010;2024-02-28T00:02:57;11.02;;;2.83;;
41309;SDS011;27057;51.438;-0.010;2024-02-28T00:05:25;11.40;;;3.28;;
41309;SDS011;27057;51.438;-0.010;2024-02-28T00:07:52;11.52;;;2.63;;
41309;SDS011;27057;51.438;-0.010;2024-02-28T00:10:19;13.70;;;2.63;;
41309;SDS011;27057;51.438;-0.010;2024-02-28T00:12:47;17.60;;;2.70;;
41309;SDS011;27057;51.438;-0.010;2024-02-28T00:15:16;10.10;;;2.30;;
41309;SDS011;27057;51.438;-0.010;2024-02-28T00:17:43;5.75;;;2.38;;
41309;SDS011;27057;51.438;-0.010;2024-02-28T00:20:10;14.30;;;3.20;;
41309;SDS011;27057;51.438;-0.010;2024-02-28T00:22:39;25.13;;;3.10;;
41309;SDS011;27057;51.438;-0.010;2024-02-28T00:25:07;15.07;;;3.25;;
41309;SDS011;27057;51.438;-0.010;2024-02-28T00:27:36;14.40;;;3.00;;
41309;SDS011;27057;51.438;-0.010;2024-02-28T00:30:04;18.33;;;3.25;;
41309;SDS011;27057;51.438;-0.010;2024-02-28T00:32:35;17.48;;;3.15;;
41309;SDS011;27057;51.438;-0.010;2024-02-28T00:35:02;14.15;;;3.13;;
41309;SDS011;27057;51.438;-0.010;2024-02-28T00:37:30;10.65;;;3.00;;
41309;SDS011;27057;51.438;-0.010;2024-02-28T00:39:58;12.30;;;3.30;;
41309;SDS011;27057;51.438;-0.010;2024-02-28T00:42:28;10.65;;;2.83;;
41309;SDS011;27057;51.438;-0.010;2024-02-28T00:44:56;15.15;;;2.88;;
41309;SDS011;27057;51.438;-0.010;2024-02-28T00:47:24;20.80;;;3.85;;
41309;SDS011;27057;51.438;-0.010;2024-02-28T00:49:52;15.85;;;3.30;;
41309;SDS011;27057;51.438;-0.010;2024-02-28T00:52:19;23.20;;;3.40;;
41309;SDS011;27057;51.438;-0.010;2024-02-28T00:54:48;20.63;;;4.00;;
41309;SDS011;27057;51.438;-0.010;2024-02-28T00:57:15;21.02;;;3.00;;
41309;SDS011;27057;51.438;-0.010;2024-02-28T00:59:43;18.20;;;4.65;;
41309;SDS011;27057;51.438;-0.010;2024-02-28T01:02:11;14.55;;;3.38;;
41309;SDS011;27057;51.438;-0.010;2024-02-28T01:04:39;21.45;;;4.32;;
41309;SDS011;27057;51.438;-0.010;2024-02-28T01:07:08;15.43;;;3.55;;
41309;SDS011;27057;51.438;-0.010;2024-02-28T01:09:35;16.73;;;4.15;;
41309;SDS011;27057;51.438;-0.010;2024-02-28T01:12:02;14.85;;;3.22;;
41309;SDS011;27057;51.438;-0.010;2024-02-28T01:14:30;13.60;;;3.30;;
41309;SDS011;27057;51.438;-0.010;2024-02-28T01:16:57;16.50;;;4.43;;
41309;SDS011;27057;51.438;-0.010;2024-02-28T01:19:24;20.73;;;3.38;;
41309;SDS011;27057;51.438;-0.010;2024-02-28T01:21:52;17.33;;;3.75;;
41309;SDS011;27057;51.438;-0.010;2024-02-28T01:24:19;17.90;;;4.10;;
41309;SDS011;27057;51.438;-0.010;2024-02-28T01:26:47;11.98;;;3.63;;
41309;SDS011;27057;51.438;-0.010;2024-02-28T01:29:14;13.20;;;3.78;;
41309;SDS011;27057;51.438;-0.010;2024-02-28T01:31:42;13.52;;;3.50;;
41309;SDS011;27057;51.438;-0.010;2024-02-28T01:34:09;16.33;;;3.45;;
41309;SDS011;27057;51.438;-0.010;2024-02-28T01:36:37;32.80;;;5.07;;
41309;SDS011;27057;51.438;-0.010;2024-02-28T01:39:04;13.23;;;3.72;;
41309;SDS011;27057;51.438;-0.010;2024-02-28T01:41:31;20.20;;;3.97;;
41309;SDS011;27057;51.438;-0.010;2024-02-28T01:43:59;18.23;;;3.58;;
41309;SDS011;27057;51.438;-0.010;2024-02-28T01:46:26;18.55;;;4.07;;
41309;SDS011;27057;51.438;-0.010;2024-02-28T01:48:55;18.67;;;3.90;;
41309;SDS011;27057;51.438;-0.010;2024-02-28T01:51:24;21.10;;;4.07;;
41309;SDS011;27057;51.438;-0.010;2024-02-28T01:53:56;24.48;;;5.03;;
41309;SDS011;27057;51.438;-0.010;2024-02-28T01:56:25;20.25;;;4.25;;
41309;SDS011;27057;51.438;-0.010;2024-02-28T01:58:55;12.18;;;2.95;;
41309;SDS011;27057;51.438;-0.010;2024-02-28T02:01:26;18.88;;;4.28;;
41309;SDS011;27057;51.438;-0.010;2024-02-28T02:03:54;14.27;;;3.58;;
41309;SDS011;27057;51.438;-0.010;2024-02-28T02:06:22;11.40;;;3.58;;
41309;SDS011;27057;51.438;-0.010;2024-02-28T02:08:51;11.45;;;3.55;;
41309;SDS011;27057;51.438;-0.010;2024-02-28T02:11:18;15.35;;;4.50;;
41309;SDS011;27057;51.438;-0.010;2024-02-28T02:13:50;15.50;;;3.97;;
41309;SDS011;27057;51.438;-0.010;2024-02-28T02:16:18;15.57;;;3.85;;
41309;SDS011;27057;51.438;-0.010;2024-02-28T02:18:49;14.20;;;3.72;;
41309;SDS011;27057;51.438;-0.010;2024-02-28T02:21:23;19.77;;;4.05;;
41309;SDS011;27057;51.438;-0.010;2024-02-28T02:23:56;15.85;;;3.28;;
41309;SDS011;27057;51.438;-0.010;2024-02-28T02:26:24;17.30;;;3.55;;
41309;SDS011;27057;51.438;-0.010;2024-02-28T02:28:51;16.77;;;3.58;;
41309;SDS011;27057;51.438;-0.010;2024-02-28T02:31:19;16.35;;;3.50;;
41309;SDS011;27057;51.438;-0.010;2024-02-28T02:33:46;25.95;;;4.72;;
41309;SDS011;27057;51.438;-0.010;2024-02-28T02:36:14;20.88;;;3.72;;
41309;SDS011;27057;51.438;-0.010;2024-02-28T02:38:41;19.85;;;4.05;;
41309;SDS011;27057;51.438;-0.010;2024-02-28T02:41:09;21.15;;;5.30;;
41309;SDS011;27057;51.438;-0.010;2024-02-28T02:43:36;24.58;;;3.63;;
41309;SDS011;27057;51.438;-0.010;2024-02-28T02:46:03;19.13;;;4.03;;
41309;SDS011;27057;51.438;-0.010;2024-02-28T02:48:31;21.42;;;4.00;;
41309;SDS011;27057;51.438;-0.010;2024-02-28T02:50:58;14.77;;;4.10;;
41309;SDS011;27057;51.438;-0.010;2024-02-28T02:53:26;22.83;;;3.75;;
41309;SDS011;27057;51.438;-0.010;2024-02-28T02:55:55;10.57;;;3.92;;
41309;SDS011;27057;51.438;-0.010;2024-02-28T02:58:22;14.55;;;4.18;;
41309;SDS011;27057;51.438;-0.010;2024-02-28T03:00:49;24.02;;;4.18;;
41309;SDS011;27057;51.438;-0.010;2024-02-28T03:03:18;17.23;;;4.13;;
41309;SDS011;27057;51.438;-0.010;2024-02-28T03:05:47;11.70;;;4.00;;
41309;SDS011;27057;51.438;-0.010;2024-02-28T03:08:14;19.30;;;4.07;;
41309;SDS011;27057;51.438;-0.010;2024-02-28T03:10:42;19.65;;;5.03;;
41309;SDS011;27057;51.438;-0.010;2024-02-28T03:13:09;16.88;;;4.38;;
41309;SDS011;27057;51.438;-0.010;2024-02-28T03:15:37;19.75;;;3.92;;
41309;SDS011;27057;51.438;-0.010;2024-02-28T03:18:04;20.85;;;5.10;;
41309;SDS011;27057;51.438;-0.010;2024-02-28T03:20:32;13.82;;;4.35;;
41309;SDS011;27057;51.438;-0.010;2024-02-28T03:22:59;15.70;;;3.45;;
41309;SDS011;27057;51.438;-0.010;2024-02-28T03:25:26;19.80;;;4.13;;
41309;SDS011;27057;51.438;-0.010;2024-02-28T03:27:55;18.80;;;3.95;;
41309;SDS011;27057;51.438;-0.010;2024-02-28T03:30:22;13.63;;;4.10;;
41309;SDS011;27057;51.438;-0.010;2024-02-28T03:32:50;12.82;;;4.05;;
41309;SDS011;27057;51.438;-0.010;2024-02-28T03:35:18;12.32;;;4.38;;
41309;SDS011;27057;51.438;-0.010;2024-02-28T03:37:45;17.77;;;4.80;;
41309;SDS011;27057;51.438;-0.010;2024-02-28T03:40:13;13.55;;;4.38;;
41309;SDS011;27057;51.438;-0.010;2024-02-28T03:42:41;17.52;;;4.75;;
41309;SDS011;27057;51.438;-0.010;2024-02-28T03:45:09;18.73;;;5.00;;
41309;SDS011;27057;51.438;-0.010;2024-02-28T03:47:36;24.80;;;4.65;;
41309;SDS011;27057;51.438;-0.010;2024-02-28T03:50:04;19.17;;;5.00;;
41309;SDS011;27057;51.438;-0.010;2024-02-28T03:52:32;24.02;;;6.28;;
41309;SDS011;27057;51.438;-0.010;2024-02-28T03:55:00;23.13;;;5.10;;
41309;SDS011;27057;51.438;-0.010;2024-02-28T03:57:28;21.20;;;5.32;;
41309;SDS011;27057;51.438;-0.010;2024-02-28T03:59:55;23.90;;;5.85;;
41309;SDS011;27057;51.438;-0.010;2024-02-28T04:02:23;23.65;;;5.70;;
41309;SDS011;27057;51.438;-0.010;2024-02-28T04:04:50;22.50;;;4.45;;
41309;SDS011;27057;51.438;-0.010;2024-02-28T04:07:18;21.65;;;5.03;;
41309;SDS011;27057;51.438;-0.010;2024-02-28T04:09:45;27.20;;;5.57;;
41309;SDS011;27057;51.438;-0.010;2024-02-28T04:12:12;18.88;;;5.30;;
41309;SDS011;27057;51.438;-0.010;2024-02-28T04:14:40;16.52;;;5.50;;
41309;SDS011;27057;51.438;-0.010;2024-02-28T04:17:07;19.98;;;4.60;;
41309;SDS011;27057;51.438;-0.010;2024-02-28T04:19:35;17.20;;;5.47;;
41309;SDS011;27057;51.438;-0.010;2024-02-28T04:22:06;14.73;;;4.65;;
41309;SDS011;27057;51.438;-0.010;2024-02-28T04:24:34;18.33;;;5.35;;
41309;SDS011;27057;51.438;-0.010;2024-02-28T04:27:01;23.42;;;5.82;;
41309;SDS011;27057;51.438;-0.010;2024-02-28T04:29:32;18.33;;;4.78;;
41309;SDS011;27057;51.438;-0.010;2024-02-28T04:32:00;22.03;;;5.53;;
41309;SDS011;27057;51.438;-0.010;2024-02-28T04:34:28;20.30;;;4.97;;
41309;SDS011;27057;51.438;-0.010;2024-02-28T04:36:57;14.82;;;4.45;;
41309;SDS011;27057;51.438;-0.010;2024-02-28T04:39:24;17.83;;;5.07;;
41309;SDS011;27057;51.438;-0.010;2024-02-28T04:41:52;13.35;;;4.78;;
41309;SDS011;27057;51.438;-0.010;2024-02-28T04:44:19;22.27;;;4.43;;
41309;SDS011;27057;51.438;-0.010;2024-02-28T04:46:46;20.88;;;6.07;;
41309;SDS011;27057;51.438;-0.010;2024-02-28T04:49:14;12.52;;;4.90;;
41309;SDS011;27057;51.438;-0.010;2024-02-28T04:51:43;23.27;;;6.18;;
41309;SDS011;27057;51.438;-0.010;2024-02-28T04:54:10;15.68;;;5.32;;
41309;SDS011;27057;51.438;-0.010;2024-02-28T04:56:41;21.67;;;5.97;;
41309;SDS011;27057;51.438;-0.010;2024-02-28T04:59:10;12.43;;;5.28;;
41309;SDS011;27057;51.438;-0.010;2024-02-28T05:01:38;25.05;;;5.57;;
41309;SDS011;27057;51.438;-0.010;2024-02-28T05:04:06;15.30;;;4.75;;
41309;SDS011;27057;51.438;-0.010;2024-02-28T05:06:34;16.13;;;5.18;;
41309;SDS011;27057;51.438;-0.010;2024-02-28T05:09:06;20.63;;;5.68;;
41309;SDS011;27057;51.438;-0.010;2024-02-28T05:11:33;16.92;;;4.82;;
41309;SDS011;27057;51.438;-0.010;2024-02-28T05:14:01;13.05;;;4.95;;
41309;SDS011;27057;51.438;-0.010;2024-02-28T05:16:28;17.73;;;5.35;;
41309;SDS011;27057;51.438;-0.010;2024-02-28T05:18:56;13.73;;;4.35;;
41309;SDS011;27057;51.438;-0.010;2024-02-28T05:21:23;15.93;;;5.25;;
41309;SDS011;27057;51.438;-0.010;2024-02-28T05:23:51;15.60;;;5.53;;
41309;SDS011;27057;51.438;-0.010;2024-02-28T05:26:18;21.85;;;6.03;;
41309;SDS011;27057;51.438;-0.010;2024-02-28T05:28:45;20.48;;;6.22;;
41309;SDS011;27057;51.438;-0.010;2024-02-28T05:33:53;18.20;;;7.07;;
41309;SDS011;27057;51.438;-0.010;2024-02-28T05:36:24;15.98;;;6.10;;
41309;SDS011;27057;51.438;-0.010;2024-02-28T05:38:54;20.55;;;5.80;;
41309;SDS011;27057;51.438;-0.010;2024-02-28T05:41:22;23.00;;;6.65;;
41309;SDS011;27057;51.438;-0.010;2024-02-28T05:43:50;20.67;;;7.50;;
41309;SDS011;27057;51.438;-0.010;2024-02-28T05:46:18;18.02;;;6.53;;
41309;SDS011;27057;51.438;-0.010;2024-02-28T05:48:48;15.48;;;5.85;;
41309;SDS011;27057;51.438;-0.010;2024-02-28T05:51:16;13.15;;;6.70;;
41309;SDS011;27057;51.438;-0.010;2024-02-28T05:53:43;13.45;;;5.95;;
41309;SDS011;27057;51.438;-0.010;2024-02-28T05:56:11;17.08;;;6.78;;
41309;SDS011;27057;51.438;-0.010;2024-02-28T05:58:44;14.52;;;6.55;;
41309;SDS011;27057;51.438;-0.010;2024-02-28T06:01:12;19.23;;;8.45;;
41309;SDS011;27057;51.438;-0.010;2024-02-28T06:03:41;21.60;;;7.13;;
41309;SDS011;27057;51.438;-0.010;2024-02-28T06:06:10;22.13;;;7.20;;
41309;SDS011;27057;51.438;-0.010;2024-02-28T06:08:38;15.50;;;7.55;;
41309;SDS011;27057;51.438;-0.010;2024-02-28T06:11:07;21.98;;;8.80;;
41309;SDS011;27057;51.438;-0.010;2024-02-28T06:13:36;16.45;;;7.00;;
41309;SDS011;27057;51.438;-0.010;2024-02-28T06:16:03;17.13;;;7.85;;
41309;SDS011;27057;51.438;-0.010;2024-02-28T06:18:31;21.77;;;7.68;;
41309;SDS011;27057;51.438;-0.010;2024-02-28T06:21:00;19.92;;;8.30;;
41309;SDS011;27057;51.438;-0.010;2024-02-28T06:23:28;16.00;;;8.10;;
41309;SDS011;27057;51.438;-0.010;2024-02-28T06:25:56;19.13;;;8.35;;
41309;SDS011;27057;51.438;-0.010;2024-02-28T06:28:24;17.52;;;8.30;;
41309;SDS011;27057;51.438;-0.010;2024-02-28T06:30:52;27.55;;;9.60;;
41309;SDS011;27057;51.438;-0.010;2024-02-28T06:33:19;19.67;;;8.32;;
41309;SDS011;27057;51.438;-0.010;2024-02-28T06:35:47;22.55;;;8.93;;
41309;SDS011;27057;51.438;-0.010;2024-02-28T06:38:14;19.75;;;8.88;;
41309;SDS011;27057;51.438;-0.010;2024-02-28T06:40:41;18.98;;;8.25;;
41309;SDS011;27057;51.438;-0.010;2024-02-28T06:43:09;20.42;;;8.43;;
41309;SDS011;27057;51.438;-0.010;2024-02-28T06:45:36;25.33;;;8.05;;
41309;SDS011;27057;51.438;-0.010;2024-02-28T06:48:06;19.60;;;8.02;;
41309;SDS011;27057;51.438;-0.010;2024-02-28T06:50:34;19.48;;;8.35;;
41309;SDS011;27057;51.438;-0.010;2024-02-28T06:53:03;22.48;;;8.77;;
41309;SDS011;27057;51.438;-0.010;2024-02-28T06:55:31;25.38;;;9.95;;
41309;SDS011;27057;51.438;-0.010;2024-02-28T06:57:58;18.25;;;8.80;;
41309;SDS011;27057;51.438;-0.010;2024-02-28T07:00:26;22.55;;;9.15;;
41309;SDS011;27057;51.438;-0.010;2024-02-28T07:02:54;29.27;;;9.13;;
41309;SDS011;27057;51.438;-0.010;2024-02-28T07:05:21;29.10;;;9.18;;
41309;SDS011;27057;51.438;-0.010;2024-02-28T07:07:49;19.63;;;9.20;;
41309;SDS011;27057;51.438;-0.010;2024-02-28T07:10:17;21.35;;;8.80;;
41309;SDS011;27057;51.438;-0.010;2024-02-28T07:12:44;21.25;;;9.80;;
41309;SDS011;27057;51.438;-0.010;2024-02-28T07:15:12;20.98;;;9.23;;
41309;SDS011;27057;51.438;-0.010;2024-02-28T07:17:39;19.77;;;9.27;;
41309;SDS011;27057;51.438;-0.010;2024-02-28T07:20:07;24.98;;;10.68;;
41309;SDS011;27057;51.438;-0.010;2024-02-28T07:22:35;22.42;;;9.95;;
41309;SDS011;27057;51.438;-0.010;2024-02-28T07:25:03;24.70;;;10.50;;
41309;SDS011;27057;51.438;-0.010;2024-02-28T07:27:31;22.23;;;8.75;;
41309;SDS011;27057;51.438;-0.010;2024-02-28T07:29:59;15.23;;;8.32;;
41309;SDS011;27057;51.438;-0.010;2024-02-28T07:32:27;16.48;;;8.85;;
41309;SDS011;27057;51.438;-0.010;2024-02-28T07:34:55;15.50;;;7.95;;
41309;SDS011;27057;51.438;-0.010;2024-02-28T07:37:22;25.67;;;9.75;;
41309;SDS011;27057;51.438;-0.010;2024-02-28T07:39:50;15.95;;;8.32;;
41309;SDS011;27057;51.438;-0.010;2024-02-28T07:42:17;21.52;;;8.95;;
41309;SDS011;27057;51.438;-0.010;2024-02-28T07:44:45;19.83;;;9.25;;
41309;SDS011;27057;51.438;-0.010;2024-02-28T07:47:12;17.58;;;7.63;;
41309;SDS011;27057;51.438;-0.010;2024-02-28T07:49:41;19.58;;;9.23;;
41309;SDS011;27057;51.438;-0.010;2024-02-28T07:52:10;22.98;;;8.57;;
41309;SDS011;27057;51.438;-0.010;2024-02-28T07:54:38;14.77;;;8.68;;
41309;SDS011;27057;51.438;-0.010;2024-02-28T07:57:11;18.40;;;8.38;;
41309;SDS011;27057;51.438;-0.010;2024-02-28T07:59:42;17.67;;;7.97;;
41309;SDS011;27057;51.438;-0.010;2024-02-28T08:02:10;17.80;;;8.27;;
41309;SDS011;27057;51.438;-0.010;2024-02-28T08:04:40;13.82;;;7.05;;
41309;SDS011;27057;51.438;-0.010;2024-02-28T08:07:07;15.63;;;6.68;;
41309;SDS011;27057;51.438;-0.010;2024-02-28T08:09:34;12.52;;;5.65;;
41309;SDS011;27057;51.438;-0.010;2024-02-28T08:12:02;15.27;;;6.13;;
41309;SDS011;27057;51.438;-0.010;2024-02-28T08:14:29;11.68;;;6.22;;
41309;SDS011;27057;51.438;-0.010;2024-02-28T08:16:57;16.42;;;6.60;;
41309;SDS011;27057;51.438;-0.010;2024-02-28T08:19:24;15.00;;;5.78;;
41309;SDS011;27057;51.438;-0.010;2024-02-28T08:21:51;18.25;;;6.85;;
41309;SDS011;27057;51.438;-0.010;2024-02-28T08:24:19;17.23;;;7.13;;
41309;SDS011;27057;51.438;-0.010;2024-02-28T08:26:46;27.58;;;8.05;;
41309;SDS011;27057;51.438;-0.010;2024-02-28T08:29:14;23.55;;;6.80;;
41309;SDS011;27057;51.438;-0.010;2024-02-28T08:31:43;14.15;;;6.60;;
41309;SDS011;27057;51.438;-0.010;2024-02-28T08:34:13;18.95;;;6.50;;
41309;SDS011;27057;51.438;-0.010;2024-02-28T08:36:40;18.52;;;6.88;;
41309;SDS011;27057;51.438;-0.010;2024-02-28T08:39:10;15.48;;;7.35;;
41309;SDS011;27057;51.438;-0.010;2024-02-28T08:41:38;19.85;;;7.47;;
41309;SDS011;27057;51.438;-0.010;2024-02-28T08:44:05;16.33;;;7.22;;
41309;SDS011;27057;51.438;-0.010;2024-02-28T08:46:33;20.95;;;8.27;;
41309;SDS011;27057;51.438;-0.010;2024-02-28T08:49:00;21.67;;;7.88;;
41309;SDS011;27057;51.438;-0.010;2024-02-28T08:51:28;20.83;;;7.43;;
41309;SDS011;27057;51.438;-0.010;2024-02-28T08:53:55;17.83;;;7.82;;
41309;SDS011;27057;51.438;-0.010;2024-02-28T08:56:24;19.50;;;8.82;;
41309;SDS011;27057;51.438;-0.010;2024-02-28T08:58:51;22.17;;;8.07;;
41309;SDS011;27057;51.438;-0.010;2024-02-28T09:01:19;17.75;;;8.98;;
41309;SDS011;27057;51.438;-0.010;2024-02-28T09:03:46;18.25;;;8.95;;
41309;SDS011;27057;51.438;-0.010;2024-02-28T09:06:14;22.65;;;8.45;;
41309;SDS011;27057;51.438;-0.010;2024-02-28T09:08:41;19.80;;;8.23;;
41309;SDS011;27057;51.438;-0.010;2024-02-28T09:11:09;18.45;;;8.27;;
41309;SDS011;27057;51.438;-0.010;2024-02-28T09:13:37;25.50;;;10.05;;
41309;SDS011;27057;51.438;-0.010;2024-02-28T09:16:04;24.00;;;10.15;;
41309;SDS011;27057;51.438;-0.010;2024-02-28T09:18:32;13.45;;;8.07;;
41309;SDS011;27057;51.438;-0.010;2024-02-28T09:21:00;21.83;;;11.15;;
41309;SDS011;27057;51.438;-0.010;2024-02-28T09:23:27;24.95;;;9.38;;
41309;SDS011;27057;51.438;-0.010;2024-02-28T09:25:55;34.35;;;10.25;;
41309;SDS011;27057;51.438;-0.010;2024-02-28T09:28:23;20.40;;;8.93;;
41309;SDS011;27057;51.438;-0.010;2024-02-28T09:30:50;23.73;;;9.63;;
41309;SDS011;27057;51.438;-0.010;2024-02-28T09:33:19;24.80;;;9.50;;
41309;SDS011;27057;51.438;-0.010;2024-02-28T09:35:47;26.98;;;10.48;;
41309;SDS011;27057;51.438;-0.010;2024-02-28T09:38:18;25.85;;;9.90;;
41309;SDS011;27057;51.438;-0.010;2024-02-28T09:40:46;17.15;;;8.52;;
41309;SDS011;27057;51.438;-0.010;2024-02-28T09:43:15;20.65;;;9.80;;
41309;SDS011;27057;51.438;-0.010;2024-02-28T09:45:53;27.83;;;10.13;;
41309;SDS011;27057;51.438;-0.010;2024-02-28T09:48:25;22.67;;;10.65;;
41309;SDS011;27057;51.438;-0.010;2024-02-28T09:50:59;26.08;;;11.00;;
41309;SDS011;27057;51.438;-0.010;2024-02-28T09:53:27;28.60;;;11.45;;
41309;SDS011;27057;51.438;-0.010;2024-02-28T09:55:54;23.02;;;9.77;;
41309;SDS011;27057;51.438;-0.010;2024-02-28T09:58:22;22.55;;;11.05;;
41309;SDS011;27057;51.438;-0.010;2024-02-28T10:00:50;22.13;;;10.63;;
41309;SDS011;27057;51.438;-0.010;2024-02-28T10:03:19;23.88;;;10.20;;
41309;SDS011;27057;51.438;-0.010;2024-02-28T10:05:47;22.10;;;10.52;;
41309;SDS011;27057;51.438;-0.010;2024-02-28T10:08:15;24.88;;;10.05;;
41309;SDS011;27057;51.438;-0.010;2024-02-28T10:10:46;22.17;;;10.57;;
41309;SDS011;27057;51.438;-0.010;2024-02-28T10:13:17;26.40;;;10.20;;
41309;SDS011;27057;51.438;-0.010;2024-02-28T10:15:44;20.15;;;8.23;;
41309;SDS011;27057;51.438;-0.010;2024-02-28T10:18:12;21.73;;;8.18;;
41309;SDS011;27057;51.438;-0.010;2024-02-28T10:20:40;24.83;;;8.43;;
41309;SDS011;27057;51.438;-0.010;2024-02-28T10:23:07;17.67;;;7.47;;
41309;SDS011;27057;51.438;-0.010;2024-02-28T10:25:46;12.30;;;5.97;;
41309;SDS011;27057;51.438;-0.010;2024-02-28T10:28:23;17.10;;;6.97;;
41309;SDS011;27057;51.438;-0.010;2024-02-28T10:30:51;21.48;;;6.15;;
41309;SDS011;27057;51.438;-0.010;2024-02-28T10:33:19;17.13;;;6.50;;
41309;SDS011;27057;51.438;-0.010;2024-02-28T10:35:47;17.33;;;6.13;;
41309;SDS011;27057;51.438;-0.010;2024-02-28T10:38:20;12.80;;;4.03;;
41309;SDS011;27057;51.438;-0.010;2024-02-28T10:40:48;17.17;;;5.63;;
41309;SDS011;27057;51.438;-0.010;2024-02-28T10:43:17;9.63;;;4.82;;
41309;SDS011;27057;51.438;-0.010;2024-02-28T10:45:46;10.25;;;3.92;;
41309;SDS011;27057;51.438;-0.010;2024-02-28T10:48:33;9.20;;;3.85;;
41309;SDS011;27057;51.438;-0.010;2024-02-28T10:51:01;14.30;;;3.80;;
41309;SDS011;27057;51.438;-0.010;2024-02-28T10:53:37;11.02;;;3.90;;
41309;SDS011;27057;51.438;-0.010;2024-02-28T10:56:12;6.05;;;3.20;;
41309;SDS011;27057;51.438;-0.010;2024-02-28T10:58:46;12.52;;;2.97;;
41309;SDS011;27057;51.438;-0.010;2024-02-28T11:01:18;9.90;;;2.95;;
41309;SDS011;27057;51.438;-0.010;2024-02-28T11:03:48;7.65;;;2.75;;
41309;SDS011;27057;51.438;-0.010;2024-02-28T11:06:20;8.48;;;2.65;;
41309;SDS011;27057;51.438;-0.010;2024-02-28T11:08:49;15.95;;;3.55;;
41309;SDS011;27057;51.438;-0.010;2024-02-28T11:11:22;7.53;;;3.05;;
41309;SDS011;27057;51.438;-0.010;2024-02-28T11:16:31;13.80;;;3.22;;
41309;SDS011;27057;51.438;-0.010;2024-02-28T11:19:00;13.30;;;3.17;;
41309;SDS011;27057;51.438;-0.010;2024-02-28T11:21:33;7.60;;;2.83;;
41309;SDS011;27057;51.438;-0.010;2024-02-28T11:24:01;11.77;;;2.97;;
41309;SDS011;27057;51.438;-0.010;2024-02-28T11:26:30;6.90;;;2.33;;
41309;SDS011;27057;51.438;-0.010;2024-02-28T11:28:57;7.03;;;2.78;;
41309;SDS011;27057;51.438;-0.010;2024-02-28T11:31:25;7.40;;;2.40;;
41309;SDS011;27057;51.438;-0.010;2024-02-28T11:33:53;15.75;;;3.58;;
41309;SDS011;27057;51.438;-0.010;2024-02-28T11:36:21;14.18;;;3.72;;
41309;SDS011;27057;51.438;-0.010;2024-02-28T11:38:49;10.77;;;2.78;;
41309;SDS011;27057;51.438;-0.010;2024-02-28T11:41:27;6.38;;;3.35;;
41309;SDS011;27057;51.438;-0.010;2024-02-28T11:43:55;8.15;;;2.40;;
41309;SDS011;27057;51.438;-0.010;2024-02-28T11:46:23;11.35;;;2.90;;
41309;SDS011;27057;51.438;-0.010;2024-02-28T11:48:50;12.70;;;2.03;;
41309;SDS011;27057;51.438;-0.010;2024-02-28T11:51:19;7.22;;;2.05;;
41309;SDS011;27057;51.438;-0.010;2024-02-28T11:53:47;10.77;;;3.58;;
41309;SDS011;27057;51.438;-0.010;2024-02-28T11:56:14;6.63;;;1.65;;
41309;SDS011;27057;51.438;-0.010;2024-02-28T11:58:51;9.80;;;2.45;;
41309;SDS011;27057;51.438;-0.010;2024-02-28T12:01:40;10.18;;;2.47;;
41309;SDS011;27057;51.438;-0.010;2024-02-28T12:04:09;10.93;;;2.67;;
41309;SDS011;27057;51.438;-0.010;2024-02-28T12:06:37;7.05;;;3.08;;
41309;SDS011;27057;51.438;-0.010;2024-02-28T12:09:07;15.95;;;3.25;;
41309;SDS011;27057;51.438;-0.010;2024-02-28T12:11:36;12.63;;;2.28;;
41309;SDS011;27057;51.438;-0.010;2024-02-28T12:14:05;16.17;;;2.40;;
41309;SDS011;27057;51.438;-0.010;2024-02-28T12:16:36;11.88;;;2.15;;
41309;SDS011;27057;51.438;-0.010;2024-02-28T12:19:08;12.52;;;1.50;;
41309;SDS011;27057;51.438;-0.010;2024-02-28T12:21:37;5.53;;;1.67;;
41309;SDS011;27057;51.438;-0.010;2024-02-28T12:24:09;9.15;;;1.65;;
41309;SDS011;27057;51.438;-0.010;2024-02-28T12:26:38;13.23;;;2.03;;
41309;SDS011;27057;51.438;-0.010;2024-02-28T12:29:06;7.38;;;1.75;;
41309;SDS011;27057;51.438;-0.010;2024-02-28T12:31:34;4.85;;;1.70;;
41309;SDS011;27057;51.438;-0.010;2024-02-28T12:34:02;10.05;;;2.15;;
41309;SDS011;27057;51.438;-0.010;2024-02-28T12:36:31;10.93;;;1.52;;
41309;SDS011;27057;51.438;-0.010;2024-02-28T12:38:59;10.65;;;4.25;;
41309;SDS011;27057;51.438;-0.010;2024-02-28T12:41:27;7.38;;;2.38;;
41309;SDS011;27057;51.438;-0.010;2024-02-28T12:43:55;6.18;;;2.10;;
41309;SDS011;27057;51.438;-0.010;2024-02-28T12:46:22;5.70;;;1.77;;
41309;SDS011;27057;51.438;-0.010;2024-02-28T12:48:50;6.72;;;1.35;;
41309;SDS011;27057;51.438;-0.010;2024-02-28T12:51:31;15.77;;;2.17;;
41309;SDS011;27057;51.438;-0.010;2024-02-28T12:54:15;7.70;;;2.33;;
41309;SDS011;27057;51.438;-0.010;2024-02-28T12:56:43;8.40;;;1.80;;
41309;SDS011;27057;51.438;-0.010;2024-02-28T12:59:10;10.98;;;2.20;;
41309;SDS011;27057;51.438;-0.010;2024-02-28T13:01:38;11.07;;;2.80;;
41309;SDS011;27057;51.438;-0.010;2024-02-28T13:04:06;10.57;;;1.77;;
41309;SDS011;27057;51.438;-0.010;2024-02-28T13:06:33;9.65;;;2.00;;
41309;SDS011;27057;51.438;-0.010;2024-02-28T13:09:01;10.25;;;2.92;;
41309;SDS011;27057;51.438;-0.010;2024-02-28T13:11:28;20.30;;;2.40;;
41309;SDS011;27057;51.438;-0.010;2024-02-28T13:13:56;9.02;;;1.45;;
41309;SDS011;27057;51.438;-0.010;2024-02-28T13:16:23;11.57;;;1.85;;
41309;SDS011;27057;51.438;-0.010;2024-02-28T13:18:51;11.20;;;1.98;;
41309;SDS011;27057;51.438;-0.010;2024-02-28T13:21:18;17.10;;;2.25;;
41309;SDS011;27057;51.438;-0.010;2024-02-28T13:23:46;11.20;;;1.80;;
41309;SDS011;27057;51.438;-0.010;2024-02-28T13:26:14;9.35;;;2.33;;
41309;SDS011;27057;51.438;-0.010;2024-02-28T13:28:45;7.60;;;2.20;;
41309;SDS011;27057;51.438;-0.010;2024-02-28T13:31:17;18.27;;;2.20;;
41309;SDS011;27057;51.438;-0.010;2024-02-28T13:33:45;5.70;;;1.55;;
41309;SDS011;27057;51.438;-0.010;2024-02-28T13:36:15;9.88;;;1.88;;
41309;SDS011;27057;51.438;-0.010;2024-02-28T13:38:42;9.48;;;2.15;;
41309;SDS011;27057;51.438;-0.010;2024-02-28T13:41:10;11.63;;;1.77;;
41309;SDS011;27057;51.438;-0.010;2024-02-28T13:43:38;15.75;;;3.10;;
41309;SDS011;27057;51.438;-0.010;2024-02-28T13:46:05;12.32;;;1.95;;
41309;SDS011;27057;51.438;-0.010;2024-02-28T13:48:33;10.45;;;1.27;;
41309;SDS011;27057;51.438;-0.010;2024-02-28T13:51:01;13.70;;;2.85;;
41309;SDS011;27057;51.438;-0.010;2024-02-28T13:53:29;5.82;;;1.52;;
41309;SDS011;27057;51.438;-0.010;2024-02-28T13:55:56;7.88;;;1.98;;
41309;SDS011;27057;51.438;-0.010;2024-02-28T13:58:24;19.52;;;2.97;;
41309;SDS011;27057;51.438;-0.010;2024-02-28T14:01:01;7.00;;;1.60;;
41309;SDS011;27057;51.438;-0.010;2024-02-28T14:03:29;9.95;;;1.80;;
41309;SDS011;27057;51.438;-0.010;2024-02-28T14:05:56;13.27;;;1.88;;
41309;SDS011;27057;51.438;-0.010;2024-02-28T14:08:24;6.57;;;2.08;;
41309;SDS011;27057;51.438;-0.010;2024-02-28T14:10:51;8.07;;;1.90;;
41309;SDS011;27057;51.438;-0.010;2024-02-28T14:13:19;14.07;;;2.15;;
41309;SDS011;27057;51.438;-0.010;2024-02-28T14:15:47;6.93;;;1.73;;
41309;SDS011;27057;51.438;-0.010;2024-02-28T14:18:14;14.85;;;2.17;;
41309;SDS011;27057;51.438;-0.010;2024-02-28T14:20:42;10.95;;;1.77;;
41309;SDS011;27057;51.438;-0.010;2024-02-28T14:23:10;16.10;;;2.35;;
41309;SDS011;27057;51.438;-0.010;2024-02-28T14:25:37;15.27;;;2.45;;
41309;SDS011;27057;51.438;-0.010;2024-02-28T14:28:05;18.13;;;3.33;;
41309;SDS011;27057;51.438;-0.010;2024-02-28T14:30:33;17.25;;;1.77;;
41309;SDS011;27057;51.438;-0.010;2024-02-28T14:33:02;25.98;;;3.08;;
41309;SDS011;27057;51.438;-0.010;2024-02-28T14:35:34;18.08;;;2.08;;